Andrews, Indiana
Current Conditions -  °F | °C
As of 3:55 AM on Thursday 23 Oct 2014 (Local Time) from KHHG Reporting Station
Haze Haze  
Wind Chill: 33°   Ceiling: 200
Heat Index: 33°   Visibility: 0.75mi
Dew Point: 32°   Wind: 0mph
Humidity: 99%   Direction: NA
Pressure: 30.27"   Gusts: NA
Location:  40.86°N, 85.6°W
Report Text: KHHG 230755Z AUTO 00000KT 3/4SM BR OVC002 00/00 A3027 RMK AO2 T00030002
Loading
Personal Weather Stations






























Interactive Weather Map New forecast layout! Learn more

10-Day Weather Forecast

Advertisements
Track Severe Weather on mobile